createdAt,value
2023-04-29T00:01:20.160Z,100692.50
2023-04-29T00:05:22.418Z,100700.47
2023-04-29T00:09:24.672Z,100696.50
2023-04-29T00:13:27.104Z,100698.78
2023-04-29T00:17:29.102Z,100697.69
2023-04-29T00:21:31.950Z,100690.78
2023-04-29T00:25:33.954Z,100689.22
2023-04-29T00:29:36.810Z,100685.53
2023-04-29T00:33:40.822Z,100686.38
2023-04-29T00:37:43.223Z,100683.91
2023-04-29T00:41:45.628Z,100672.75
2023-04-29T00:45:47.760Z,100676.16
2023-04-29T00:49:50.674Z,100668.53
2023-04-29T00:53:53.469Z,100672.44
2023-04-29T00:57:56.019Z,100664.53
2023-04-29T01:02:03.917Z,100662.63
2023-04-29T01:06:21.032Z,100665.78
2023-04-29T01:10:35.893Z,100669.16
2023-04-29T01:14:39.664Z,100683.56
2023-04-29T01:18:46.172Z,100670.59
2023-04-29T01:22:52.497Z,100675.63
2023-04-29T01:27:05.358Z,100677.28
2023-04-29T01:31:25.200Z,100681.81
2023-04-29T01:35:52.460Z,100687.72
2023-04-29T01:40:16.080Z,100679.31
2023-04-29T01:44:31.877Z,100675.75
2023-04-29T01:48:34.441Z,100675.53
2023-04-29T01:52:36.754Z,100665.72
2023-04-29T01:56:38.765Z,100669.09
2023-04-29T02:00:56.174Z,100666.22
2023-04-29T02:04:59.351Z,100671.59
2023-04-29T02:09:01.712Z,100672.38
2023-04-29T02:13:03.769Z,100662.72
2023-04-29T02:17:06.052Z,100670.75
2023-04-29T02:21:08.913Z,100664.53
2023-04-29T02:25:11.707Z,100666.28
2023-04-29T02:29:13.835Z,100662.06
2023-04-29T02:33:16.247Z,100657.00
2023-04-29T02:37:18.638Z,100657.38
2023-04-29T02:41:21.388Z,100657.34
2023-04-29T02:45:23.451Z,100657.44
2023-04-29T02:49:25.742Z,100659.03
2023-04-29T02:53:27.858Z,100648.72
2023-04-29T02:57:29.847Z,100647.59
2023-04-29T03:01:31.554Z,100650.41
2023-04-29T03:05:34.804Z,100645.19
2023-04-29T03:09:37.057Z,100646.78
2023-04-29T03:13:39.268Z,100649.41
2023-04-29T03:17:42.467Z,100645.81
2023-04-29T03:21:45.260Z,100642.53
2023-04-29T03:25:48.155Z,100643.50
2023-04-29T03:29:50.222Z,100647.75
2023-04-29T03:33:53.506Z,100643.06
2023-04-29T03:37:56.570Z,100638.59
2023-04-29T03:42:04.751Z,100640.44
2023-04-29T03:46:07.537Z,100644.59
2023-04-29T03:50:09.943Z,100648.44
2023-04-29T03:54:13.122Z,100642.53
2023-04-29T03:58:15.344Z,100643.34
2023-04-29T04:02:18.579Z,100642.06
2023-04-29T04:06:20.977Z,100638.53
2023-04-29T04:10:23.810Z,100636.50
2023-04-29T04:14:26.342Z,100638.03
2023-04-29T04:18:28.546Z,100632.56
2023-04-29T04:22:31.782Z,100632.06
2023-04-29T04:26:49.928Z,100628.25
2023-04-29T04:30:59.934Z,100629.41
2023-04-29T04:35:02.534Z,100622.00
2023-04-29T04:39:04.825Z,100629.47
2023-04-29T04:43:08.092Z,100633.91
2023-04-29T04:47:15.152Z,100625.69
2023-04-29T04:51:37.402Z,100626.84
2023-04-29T04:55:39.512Z,100627.31
2023-04-29T04:59:43.362Z,100623.97
2023-04-29T05:03:45.582Z,100621.44
2023-04-29T05:07:47.704Z,100617.81
2023-04-29T05:11:51.173Z,100619.50
2023-04-29T05:15:53.989Z,100618.22
2023-04-29T05:19:59.871Z,100609.91
2023-04-29T05:24:02.106Z,100607.03
2023-04-29T05:28:04.912Z,100620.34
2023-04-29T05:32:09.571Z,100612.63
2023-04-29T05:36:11.715Z,100611.66
2023-04-29T05:40:13.849Z,100606.63
2023-04-29T05:44:16.407Z,100613.56
2023-04-29T05:48:18.406Z,100608.91
2023-04-29T05:52:20.996Z,100609.28
2023-04-29T05:56:24.470Z,100611.03
2023-04-29T06:00:26.830Z,100603.88
2023-04-29T06:04:35.209Z,100609.91
2023-04-29T06:08:39.918Z,100602.78
2023-04-29T06:12:55.090Z,100611.19
2023-04-29T06:16:57.393Z,100606.66
2023-04-29T06:21:00.513Z,100612.03
2023-04-29T06:25:02.586Z,100606.13
2023-04-29T06:29:16.766Z,100603.91
2023-04-29T06:33:19.069Z,100606.81
2023-04-29T06:37:21.302Z,100596.94
2023-04-29T06:41:36.847Z,100606.59
2023-04-29T06:45:57.516Z,100601.09
2023-04-29T06:50:22.626Z,100587.59
2023-04-29T06:54:24.923Z,100591.50
2023-04-29T06:58:27.010Z,100595.78
2023-04-29T07:02:29.104Z,100601.88
2023-04-29T07:06:31.767Z,100597.47
2023-04-29T07:10:34.715Z,100586.50
2023-04-29T07:14:37.510Z,100589.75
2023-04-29T07:18:39.505Z,100584.22
2023-04-29T07:22:41.877Z,100575.91
2023-04-29T07:26:47.769Z,100578.00
2023-04-29T07:30:52.082Z,100577.91
2023-04-29T07:34:54.800Z,100574.75
2023-04-29T07:38:57.053Z,100575.44
2023-04-29T07:42:59.063Z,100573.38
2023-04-29T07:47:01.231Z,100581.59
2023-04-29T07:51:04.150Z,100569.94
2023-04-29T07:55:06.531Z,100571.06
2023-04-29T07:59:08.647Z,100569.88
2023-04-29T08:03:10.860Z,100572.84
2023-04-29T08:07:13.141Z,100572.09
2023-04-29T08:11:19.147Z,100570.69
2023-04-29T08:15:21.240Z,100566.91
2023-04-29T08:19:23.366Z,100569.72
2023-04-29T08:23:25.764Z,100555.44
2023-04-29T08:27:27.898Z,100558.66
2023-04-29T08:31:29.895Z,100563.59
2023-04-29T08:35:32.296Z,100543.44
2023-04-29T08:39:34.377Z,100550.25
2023-04-29T08:43:42.506Z,100552.69
2023-04-29T08:47:44.968Z,100551.28
2023-04-29T08:51:51.628Z,100554.25
2023-04-29T08:55:55.095Z,100547.38
2023-04-29T08:59:59.871Z,100553.50
2023-04-29T09:04:08.399Z,100548.44
2023-04-29T09:08:12.546Z,100546.75
2023-04-29T09:12:14.528Z,100548.91
2023-04-29T09:16:16.710Z,100543.91
2023-04-29T09:20:21.686Z,100543.94
2023-04-29T09:24:28.080Z,100550.19
2023-04-29T09:28:30.132Z,100537.19
2023-04-29T09:32:32.117Z,100544.16
2023-04-29T09:36:50.870Z,100536.84
2023-04-29T09:40:59.632Z,100526.63
2023-04-29T09:45:03.174Z,100533.56
2023-04-29T09:49:23.952Z,100528.59
2023-04-29T09:53:30.368Z,100522.72
2023-04-29T09:57:44.263Z,100520.75
2023-04-29T10:01:57.707Z,100512.91
2023-04-29T10:06:01.219Z,100511.81
2023-04-29T10:10:05.398Z,100504.94
2023-04-29T10:14:12.351Z,100504.09
2023-04-29T10:18:20.269Z,100493.72
2023-04-29T10:22:33.686Z,100479.34
2023-04-29T10:26:39.203Z,100486.31
2023-04-29T10:30:44.397Z,100489.16
2023-04-29T10:34:46.897Z,100470.31
2023-04-29T10:38:53.999Z,100473.53
2023-04-29T10:42:56.778Z,100465.03
2023-04-29T10:47:25.105Z,100468.41
2023-04-29T10:51:45.546Z,100475.25
2023-04-29T10:55:49.461Z,100463.91
2023-04-29T10:59:53.852Z,100466.59
2023-04-29T11:04:01.748Z,100466.44
2023-04-29T11:08:13.647Z,100464.44
2023-04-29T11:12:20.601Z,100462.88
2023-04-29T11:16:28.283Z,100442.25
2023-04-29T11:20:30.455Z,100445.72
2023-04-29T11:24:34.755Z,100446.53
2023-04-29T11:28:36.849Z,100450.13
2023-04-29T11:32:42.546Z,100441.03
2023-04-29T11:36:46.985Z,100447.47
2023-04-29T11:40:50.346Z,100453.31
2023-04-29T11:44:54.673Z,100442.59
2023-04-29T11:48:58.092Z,100431.09
2023-04-29T11:53:00.180Z,100428.00
2023-04-29T11:57:04.843Z,100428.72
2023-04-29T12:01:07.164Z,100432.81
2023-04-29T12:05:09.579Z,100420.44
2023-04-29T12:09:12.122Z,100426.34
2023-04-29T12:13:15.114Z,100415.72
2023-04-29T12:17:17.756Z,100396.53
2023-04-29T12:21:19.858Z,100399.94
2023-04-29T12:25:26.740Z,100402.88
2023-04-29T12:29:28.731Z,100412.78
2023-04-29T12:33:31.547Z,100401.53
2023-04-29T12:37:33.881Z,100388.69
2023-04-29T12:41:41.137Z,100390.63
2023-04-29T12:45:43.277Z,100393.88
2023-04-29T12:49:47.136Z,100393.13
2023-04-29T12:53:49.135Z,100384.09
2023-04-29T12:57:51.680Z,100376.88
2023-04-29T13:01:53.855Z,100384.66
2023-04-29T13:05:55.983Z,100384.25
2023-04-29T13:09:57.991Z,100381.41
2023-04-29T13:14:00.172Z,100372.84
2023-04-29T13:18:02.822Z,100372.44
2023-04-29T13:22:04.899Z,100378.88
2023-04-29T13:26:08.872Z,100379.56
2023-04-29T13:30:11.479Z,100373.75
2023-04-29T13:34:13.580Z,100363.34
2023-04-29T13:38:15.892Z,100360.47
2023-04-29T13:42:18.038Z,100352.69
2023-04-29T13:46:20.801Z,100350.19
2023-04-29T13:51:09.691Z,100359.81
2023-04-29T13:54:56.840Z,100357.25
2023-04-29T14:03:11.419Z,100362.34
2023-04-29T14:07:14.528Z,100357.53
2023-04-29T14:11:17.035Z,100362.84
2023-04-29T14:15:19.272Z,100352.66
2023-04-29T14:19:21.376Z,100350.22
2023-04-29T14:23:23.442Z,100350.72
2023-04-29T14:27:25.696Z,100358.84
2023-04-29T14:31:29.774Z,100353.97
2023-04-29T14:35:31.949Z,100347.56
2023-04-29T14:39:34.063Z,100346.81
2023-04-29T14:43:36.194Z,100343.91
2023-04-29T14:47:38.762Z,100340.72
2023-04-29T14:51:40.968Z,100339.09
2023-04-29T14:55:43.114Z,100339.59
2023-04-29T14:59:45.082Z,100337.53
2023-04-29T15:03:47.445Z,100338.44
2023-04-29T15:07:49.199Z,100339.28
2023-04-29T15:11:51.181Z,100339.72
2023-04-29T15:15:53.388Z,100334.53
2023-04-29T15:19:55.658Z,100339.25
2023-04-29T15:23:57.788Z,100347.59
2023-04-29T15:28:00.043Z,100337.66
2023-04-29T15:32:02.138Z,100346.41
2023-04-29T15:36:04.549Z,100346.00
2023-04-29T15:40:07.351Z,100346.97
2023-04-29T15:44:09.430Z,100342.34
2023-04-29T15:48:11.477Z,100340.97
2023-04-29T15:52:13.641Z,100330.59
2023-04-29T15:56:15.385Z,100332.28
2023-04-29T16:00:17.650Z,100334.38
2023-04-29T16:04:19.690Z,100328.06
2023-04-29T16:08:21.730Z,100327.53
2023-04-29T16:12:23.801Z,100324.06
2023-04-29T16:16:25.936Z,100332.84
2023-04-29T16:20:27.970Z,100331.81
2023-04-29T16:24:29.951Z,100323.28
2023-04-29T16:28:32.055Z,100319.56
2023-04-29T16:32:34.511Z,100325.91
2023-04-29T16:36:37.529Z,100332.72
2023-04-29T16:40:39.536Z,100344.88
2023-04-29T16:44:41.565Z,100337.19
2023-04-29T16:48:43.626Z,100339.19
2023-04-29T16:52:45.715Z,100340.81
2023-04-29T16:56:48.900Z,100351.44
2023-04-29T17:00:53.702Z,100354.56
2023-04-29T17:04:56.109Z,100366.69
2023-04-29T17:08:58.397Z,100364.53
2023-04-29T17:13:00.464Z,100369.25
2023-04-29T17:17:02.556Z,100361.81
2023-04-29T17:21:05.385Z,100362.38
2023-04-29T17:25:10.597Z,100363.38
2023-04-29T17:29:12.731Z,100357.47
2023-04-29T17:33:17.268Z,100364.72
2023-04-29T17:37:24.856Z,100363.56
2023-04-29T17:41:26.864Z,100364.31
2023-04-29T17:45:28.951Z,100362.75
2023-04-29T17:49:31.372Z,100370.38
2023-04-29T17:53:33.473Z,100360.06
2023-04-29T17:57:36.537Z,100362.38
2023-04-29T18:01:38.670Z,100370.59
2023-04-29T18:05:40.678Z,100375.19
2023-04-29T18:09:42.845Z,100380.59
2023-04-29T18:13:44.825Z,100386.88
2023-04-29T18:17:46.897Z,100386.06
2023-04-29T18:21:49.087Z,100394.59
2023-04-29T18:25:51.115Z,100394.25
2023-04-29T18:29:53.363Z,100402.66
2023-04-29T18:33:55.753Z,100404.72
2023-04-29T18:37:57.910Z,100413.63
2023-04-29T18:42:00.313Z,100409.19
2023-04-29T18:46:02.604Z,100416.88
2023-04-29T18:50:04.835Z,100416.66
2023-04-29T18:54:07.584Z,100421.19
2023-04-29T18:58:09.792Z,100421.94
2023-04-29T19:02:12.012Z,100425.31
2023-04-29T19:06:13.992Z,100420.38
2023-04-29T19:10:15.743Z,100418.81
2023-04-29T19:14:17.709Z,100415.66
2023-04-29T19:18:21.348Z,100415.84
2023-04-29T19:22:23.508Z,100418.94
2023-04-29T19:26:25.757Z,100417.88
2023-04-29T19:30:27.703Z,100419.94
2023-04-29T19:34:30.026Z,100420.16
2023-04-29T19:38:32.006Z,100420.66
2023-04-29T19:42:34.128Z,100421.34
2023-04-29T19:46:36.130Z,100425.72
2023-04-29T19:50:38.650Z,100427.88
2023-04-29T19:54:40.919Z,100426.91
2023-04-29T19:58:43.061Z,100422.28
2023-04-29T20:02:44.929Z,100414.59
2023-04-29T20:06:47.149Z,100415.25
2023-04-29T20:10:49.307Z,100411.56
2023-04-29T20:14:51.400Z,100414.03
2023-04-29T20:18:53.615Z,100417.84
2023-04-29T20:22:58.118Z,100417.50
2023-04-29T20:27:00.146Z,100415.63
2023-04-29T20:31:02.351Z,100413.72
2023-04-29T20:35:05.630Z,100407.53
2023-04-29T20:39:08.985Z,100404.53
2023-04-29T20:43:11.726Z,100405.94
2023-04-29T20:47:13.791Z,100401.69
2023-04-29T20:51:15.967Z,100400.22
2023-04-29T20:55:18.021Z,100405.59
2023-04-29T20:59:20.015Z,100405.47
2023-04-29T21:03:22.603Z,100406.25
2023-04-29T21:07:24.722Z,100399.59
2023-04-29T21:11:26.783Z,100399.69
2023-04-29T21:15:29.381Z,100380.41
2023-04-29T21:19:31.729Z,100392.06
2023-04-29T21:23:33.750Z,100401.66
2023-04-29T21:27:36.467Z,100408.69
2023-04-29T21:31:38.581Z,100417.50
2023-04-29T21:35:42.337Z,100412.13
2023-04-29T21:39:44.594Z,100416.66
2023-04-29T21:43:48.923Z,100416.22
2023-04-29T21:47:51.900Z,100412.84
2023-04-29T21:51:55.463Z,100413.00
2023-04-29T21:55:57.471Z,100416.16
2023-04-29T21:59:59.695Z,100416.44
2023-04-29T22:04:01.722Z,100409.03
2023-04-29T22:08:07.185Z,100399.09
2023-04-29T22:12:09.423Z,100409.56
2023-04-29T22:16:11.971Z,100411.22
2023-04-29T22:20:14.400Z,100411.97
2023-04-29T22:24:17.018Z,100405.06
2023-04-29T22:28:19.204Z,100393.69
2023-04-29T22:32:21.257Z,100392.88
2023-04-29T22:36:23.364Z,100399.16
2023-04-29T22:40:25.480Z,100395.41
2023-04-29T22:44:27.467Z,100398.47
2023-04-29T22:48:29.679Z,100386.22
2023-04-29T22:52:32.758Z,100389.28
2023-04-29T22:56:34.899Z,100394.69
2023-04-29T23:00:36.868Z,100388.31
2023-04-29T23:04:38.921Z,100400.63
2023-04-29T23:08:40.940Z,100400.97
2023-04-29T23:12:43.220Z,100409.00
2023-04-29T23:16:45.340Z,100401.66
2023-04-29T23:20:47.934Z,100408.91
2023-04-29T23:24:50.179Z,100410.72
2023-04-29T23:28:52.338Z,100403.47
2023-04-29T23:32:54.021Z,100407.78
2023-04-29T23:36:56.190Z,100402.81
2023-04-29T23:40:58.146Z,100400.19
2023-04-29T23:45:00.252Z,100394.97
2023-04-29T23:49:02.224Z,100388.38
2023-04-29T23:53:04.281Z,100372.59
2023-04-29T23:57:06.932Z,100360.22
